createdAt,value
2022-11-17T00:01:53.195Z,23.65
2022-11-17T00:04:19.992Z,23.38
2022-11-17T00:06:46.675Z,27.95
2022-11-17T00:09:17.642Z,25.38
2022-11-17T00:12:04.234Z,22.92
2022-11-17T00:14:36.414Z,25.75
2022-11-17T00:17:06.593Z,23.30
2022-11-17T00:19:51.755Z,22.02
2022-11-17T00:22:18.915Z,24.60
2022-11-17T00:24:45.738Z,23.33
2022-11-17T00:27:13.219Z,24.95
2022-11-17T00:29:39.995Z,26.52
2022-11-17T00:32:36.483Z,24.98
2022-11-17T00:37:35.733Z,24.25
2022-11-17T00:40:03.186Z,22.00
2022-11-17T00:42:29.890Z,27.10
2022-11-17T00:44:56.619Z,24.38
2022-11-17T00:47:23.279Z,25.85
2022-11-17T00:49:50.220Z,25.38
2022-11-17T00:52:16.894Z,24.20
2022-11-17T00:54:43.601Z,30.80
2022-11-17T00:57:10.294Z,23.65
2022-11-17T00:59:37.041Z,25.13
2022-11-17T01:02:03.717Z,24.15
2022-11-17T01:04:30.600Z,25.25
2022-11-17T01:06:57.311Z,22.30
2022-11-17T01:09:24.465Z,26.02
2022-11-17T01:11:52.640Z,26.30
2022-11-17T01:14:26.433Z,28.35
2022-11-17T01:16:54.561Z,28.25
2022-11-17T01:19:22.962Z,26.20
2022-11-17T01:21:49.804Z,26.83
2022-11-17T01:24:17.681Z,27.63
2022-11-17T01:26:45.593Z,24.98
2022-11-17T01:29:14.863Z,28.48
2022-11-17T01:31:45.902Z,29.95
2022-11-17T01:34:12.658Z,35.03
2022-11-17T01:37:00.641Z,30.55
2022-11-17T01:39:28.675Z,34.95
2022-11-17T01:41:56.123Z,30.17
2022-11-17T01:44:44.689Z,35.55
2022-11-17T01:47:20.698Z,34.28
2022-11-17T01:49:49.604Z,33.22
2022-11-17T01:52:16.623Z,30.08
2022-11-17T01:54:46.241Z,32.53
2022-11-17T01:57:19.696Z,28.13
2022-11-17T01:59:51.991Z,30.80
2022-11-17T02:02:19.930Z,30.42
2022-11-17T02:04:57.251Z,35.75
2022-11-17T02:07:29.867Z,36.10
2022-11-17T02:09:58.772Z,36.10
2022-11-17T02:12:28.004Z,33.40
2022-11-17T02:14:55.296Z,40.30
2022-11-17T02:17:24.766Z,36.08
2022-11-17T02:20:09.965Z,38.20
2022-11-17T02:23:04.582Z,33.63
2022-11-17T02:26:08.663Z,37.13
2022-11-17T02:28:40.187Z,34.15
2022-11-17T02:31:28.560Z,32.55
2022-11-17T02:34:06.222Z,36.05
2022-11-17T02:36:42.275Z,38.67
2022-11-17T02:39:23.898Z,33.28
2022-11-17T02:42:14.030Z,33.25
2022-11-17T02:44:52.760Z,36.10
2022-11-17T02:47:25.351Z,35.38
2022-11-17T02:50:03.461Z,35.35
2022-11-17T02:52:30.814Z,36.45
2022-11-17T02:55:02.703Z,35.15
2022-11-17T02:57:30.932Z,36.80
2022-11-17T03:00:01.388Z,37.10
2022-11-17T03:02:50.839Z,35.85
2022-11-17T03:05:27.665Z,29.23
2022-11-17T03:08:08.552Z,34.72
2022-11-17T03:11:00.861Z,34.60
2022-11-17T03:13:46.326Z,31.52
2022-11-17T03:16:16.075Z,30.38
2022-11-17T03:18:51.686Z,37.92
2022-11-17T03:24:09.373Z,33.95
2022-11-17T03:26:47.494Z,34.95
2022-11-17T03:29:19.328Z,33.20
2022-11-17T03:31:48.957Z,32.38
2022-11-17T03:34:20.499Z,33.08
2022-11-17T03:36:53.349Z,32.63
2022-11-17T03:39:24.528Z,38.35
2022-11-17T03:41:58.763Z,33.92
2022-11-17T03:44:28.666Z,32.50
2022-11-17T03:46:57.869Z,33.38
2022-11-17T03:49:52.226Z,35.45
2022-11-17T03:52:20.029Z,34.67
2022-11-17T03:54:46.815Z,37.35
2022-11-17T03:57:23.569Z,36.25
2022-11-17T03:59:56.783Z,36.03
2022-11-17T04:02:25.873Z,41.05
2022-11-17T04:05:07.723Z,33.25
2022-11-17T04:07:35.930Z,36.17
2022-11-17T04:10:03.857Z,37.08
2022-11-17T04:12:49.127Z,35.08
2022-11-17T04:15:34.702Z,39.28
2022-11-17T04:18:02.654Z,40.20
2022-11-17T04:20:35.875Z,41.03
2022-11-17T04:23:07.739Z,42.00
2022-11-17T04:25:57.810Z,41.53
2022-11-17T04:28:38.357Z,46.10
2022-11-17T04:31:12.911Z,45.75
2022-11-17T04:33:45.258Z,42.13
2022-11-17T04:36:14.314Z,38.33
2022-11-17T04:38:45.367Z,35.55
2022-11-17T04:41:32.778Z,35.67
2022-11-17T04:44:00.673Z,41.95
2022-11-17T04:46:29.244Z,39.13
2022-11-17T04:48:56.420Z,35.15
2022-11-17T04:51:23.945Z,40.85
2022-11-17T04:53:50.635Z,38.00
2022-11-17T04:56:18.484Z,37.45
2022-11-17T04:58:45.126Z,39.25
2022-11-17T05:01:15.867Z,40.25
2022-11-17T05:04:09.506Z,37.42
2022-11-17T05:06:41.926Z,38.45
2022-11-17T05:09:11.814Z,36.05
2022-11-17T05:11:57.372Z,38.53
2022-11-17T05:14:25.490Z,41.17
2022-11-17T05:17:11.887Z,39.30
2022-11-17T05:19:44.572Z,43.85
2022-11-17T05:22:35.807Z,39.17
2022-11-17T05:25:03.111Z,41.15
2022-11-17T05:27:29.873Z,38.95
2022-11-17T05:29:56.610Z,34.45
2022-11-17T05:32:23.823Z,39.75
2022-11-17T05:34:50.766Z,41.72
2022-11-17T05:37:17.499Z,43.63
2022-11-17T05:39:44.265Z,39.78
2022-11-17T05:42:11.077Z,40.67
2022-11-17T05:44:37.874Z,41.40
2022-11-17T05:47:04.622Z,38.35
2022-11-17T05:49:31.340Z,41.10
2022-11-17T05:51:57.999Z,38.03
2022-11-17T05:54:24.749Z,42.65
2022-11-17T05:56:59.330Z,45.13
2022-11-17T05:59:46.811Z,42.42
2022-11-17T06:02:18.944Z,36.88
2022-11-17T06:04:48.548Z,40.85
2022-11-17T06:07:15.870Z,40.75
2022-11-17T06:09:42.764Z,41.53
2022-11-17T06:12:12.116Z,43.25
2022-11-17T06:14:39.796Z,43.13
2022-11-17T06:17:13.444Z,50.08
2022-11-17T06:19:46.954Z,42.88
2022-11-17T06:22:13.923Z,41.75
2022-11-17T06:24:43.290Z,42.35
2022-11-17T06:27:14.734Z,38.28
2022-11-17T06:29:44.947Z,42.55
2022-11-17T06:32:14.251Z,40.60
2022-11-17T06:34:42.311Z,44.90
2022-11-17T06:37:09.097Z,44.97
2022-11-17T06:39:35.751Z,42.97
2022-11-17T06:42:02.491Z,40.53
2022-11-17T06:44:29.140Z,39.67
2022-11-17T06:46:55.870Z,41.22
2022-11-17T06:49:22.593Z,45.78
2022-11-17T06:51:49.263Z,43.28
2022-11-17T06:54:15.938Z,39.65
2022-11-17T06:56:43.657Z,43.17
2022-11-17T06:59:10.460Z,43.97
2022-11-17T07:01:37.854Z,40.47
2022-11-17T07:04:04.821Z,42.53
2022-11-17T07:06:32.212Z,35.83
2022-11-17T07:08:58.974Z,43.63
2022-11-17T07:11:25.793Z,42.28
2022-11-17T07:13:52.601Z,43.33
2022-11-17T07:16:23.483Z,41.88
2022-11-17T07:18:51.017Z,42.53
2022-11-17T07:21:18.141Z,43.20
2022-11-17T07:23:45.802Z,38.75
2022-11-17T07:26:12.767Z,37.97
2022-11-17T07:28:39.595Z,42.67
2022-11-17T07:31:08.106Z,40.00
2022-11-17T07:33:35.508Z,43.08
2022-11-17T07:36:04.159Z,41.85
2022-11-17T07:38:32.897Z,42.03
2022-11-17T07:41:01.080Z,43.35
2022-11-17T07:43:28.422Z,40.63
2022-11-17T07:45:55.263Z,42.25
2022-11-17T07:48:22.082Z,46.17
2022-11-17T07:50:49.184Z,48.80
2022-11-17T07:53:16.029Z,49.58
2022-11-17T07:55:42.867Z,49.20
2022-11-17T07:58:09.602Z,44.60
2022-11-17T08:00:36.874Z,47.03
2022-11-17T08:03:04.833Z,51.22
2022-11-17T08:05:39.909Z,45.65
2022-11-17T08:08:10.317Z,45.45
2022-11-17T08:10:37.195Z,52.33
2022-11-17T08:13:04.219Z,49.30
2022-11-17T08:15:31.685Z,47.50
2022-11-17T08:18:00.190Z,39.97
2022-11-17T08:20:29.127Z,43.47
2022-11-17T08:22:56.714Z,42.15
2022-11-17T08:25:25.691Z,43.97
2022-11-17T08:27:59.679Z,44.75
2022-11-17T08:30:26.833Z,45.70
2022-11-17T08:32:54.457Z,43.80
2022-11-17T08:35:25.009Z,47.35
2022-11-17T08:37:52.483Z,42.28
2022-11-17T08:40:19.745Z,45.17
2022-11-17T08:42:47.105Z,47.20
2022-11-17T08:45:14.192Z,52.65
2022-11-17T08:47:41.047Z,43.22
2022-11-17T08:50:08.753Z,48.53
2022-11-17T08:52:35.505Z,43.83
2022-11-17T08:55:02.688Z,44.95
2022-11-17T08:57:30.637Z,46.08
2022-11-17T08:59:57.549Z,48.55
2022-11-17T09:02:24.771Z,44.30
2022-11-17T09:04:51.575Z,45.95
2022-11-17T09:07:18.440Z,46.28
2022-11-17T09:09:46.398Z,42.28
2022-11-17T09:12:13.483Z,39.10
2022-11-17T09:14:40.221Z,40.20
2022-11-17T09:17:07.483Z,39.05
2022-11-17T09:19:34.435Z,37.75
2022-11-17T09:22:01.176Z,38.75
2022-11-17T09:24:27.999Z,48.50
2022-11-17T09:26:57.333Z,35.55
2022-11-17T09:29:24.283Z,39.83
2022-11-17T09:31:51.104Z,41.65
2022-11-17T09:34:18.178Z,35.67
2022-11-17T09:36:45.034Z,41.80
2022-11-17T09:39:11.872Z,40.38
2022-11-17T09:41:43.443Z,38.42
2022-11-17T09:44:39.957Z,37.97
2022-11-17T09:47:26.309Z,35.65
2022-11-17T09:49:59.557Z,41.45
2022-11-17T09:52:47.339Z,44.78
2022-11-17T09:55:33.947Z,42.92
2022-11-17T09:58:24.700Z,40.42
2022-11-17T10:00:53.009Z,37.78
2022-11-17T10:03:32.894Z,33.30
2022-11-17T10:06:03.524Z,34.40
2022-11-17T10:08:58.309Z,36.25
2022-11-17T10:11:37.426Z,37.15
2022-11-17T10:14:14.103Z,34.67
2022-11-17T10:16:43.876Z,39.10
2022-11-17T10:19:10.650Z,33.67
2022-11-17T10:21:38.147Z,38.88
2022-11-17T10:24:05.252Z,35.78
2022-11-17T10:26:45.516Z,30.88
2022-11-17T10:29:14.191Z,34.30
2022-11-17T10:31:46.098Z,39.70
2022-11-17T10:34:40.197Z,34.38
2022-11-17T10:37:14.071Z,32.75
2022-11-17T10:39:43.276Z,34.83
2022-11-17T10:42:29.637Z,37.17
2022-11-17T10:45:01.640Z,41.42
2022-11-17T10:47:39.504Z,32.17
2022-11-17T10:50:13.201Z,36.28
2022-11-17T10:52:40.028Z,37.35
2022-11-17T10:55:33.868Z,36.67
2022-11-17T10:58:23.665Z,43.03
2022-11-17T11:00:58.617Z,37.83
2022-11-17T11:03:32.971Z,40.83
2022-11-17T11:06:04.738Z,41.75
2022-11-17T11:08:44.038Z,39.50
2022-11-17T11:11:43.713Z,40.50
2022-11-17T11:14:22.065Z,38.50
2022-11-17T11:16:50.899Z,40.13
2022-11-17T11:19:19.616Z,34.67
2022-11-17T11:22:07.600Z,34.38
2022-11-17T11:24:59.762Z,36.45
2022-11-17T11:28:04.653Z,36.30
2022-11-17T11:30:47.154Z,35.33
2022-11-17T11:33:23.940Z,38.95
2022-11-17T11:36:11.450Z,32.05
2022-11-17T11:38:50.503Z,40.33
2022-11-17T11:41:48.047Z,33.95
2022-11-17T11:44:50.408Z,36.28
2022-11-17T11:47:41.788Z,37.38
2022-11-17T11:50:20.816Z,36.67
2022-11-17T11:53:05.038Z,41.00
2022-11-17T11:55:35.476Z,41.90
2022-11-17T11:58:12.953Z,37.40
2022-11-17T12:00:42.261Z,34.45
2022-11-17T12:03:33.751Z,35.97
2022-11-17T12:06:41.402Z,33.10
2022-11-17T12:09:17.156Z,36.35
2022-11-17T12:12:00.545Z,34.53
2022-11-17T12:14:38.011Z,40.30
2022-11-17T12:17:13.741Z,31.95
2022-11-17T12:19:59.729Z,35.35
2022-11-17T12:22:29.195Z,35.97
2022-11-17T12:25:18.086Z,36.30
2022-11-17T12:27:52.825Z,39.67
2022-11-17T12:30:34.592Z,37.63
2022-11-17T12:33:05.936Z,39.63
2022-11-17T12:35:33.721Z,40.00
2022-11-17T12:38:15.854Z,40.58
2022-11-17T12:40:53.988Z,40.00
2022-11-17T12:43:27.998Z,37.38
2022-11-17T12:46:00.550Z,37.13
2022-11-17T12:48:36.404Z,37.75
2022-11-17T12:51:21.959Z,39.55
2022-11-17T12:54:13.462Z,43.05
2022-11-17T12:56:46.591Z,42.85
2022-11-17T12:59:28.428Z,42.53
2022-11-17T13:02:31.301Z,40.85
2022-11-17T13:05:10.880Z,36.45
2022-11-17T13:07:37.659Z,39.58
2022-11-17T13:10:04.738Z,42.83
2022-11-17T13:12:33.807Z,42.95
2022-11-17T13:15:05.119Z,37.55
2022-11-17T13:17:41.671Z,40.78
2022-11-17T13:20:28.816Z,44.47
2022-11-17T13:23:06.514Z,43.38
2022-11-17T13:25:34.428Z,38.50
2022-11-17T13:28:04.768Z,39.80
2022-11-17T13:30:33.139Z,37.20
2022-11-17T13:33:03.099Z,32.97
2022-11-17T13:35:34.895Z,32.20
2022-11-17T13:38:20.218Z,29.92
2022-11-17T13:40:51.074Z,29.10
2022-11-17T13:43:20.625Z,28.23
2022-11-17T13:45:49.087Z,28.63
2022-11-17T13:48:54.730Z,24.85
2022-11-17T13:51:21.399Z,25.58
2022-11-17T13:53:58.362Z,23.52
2022-11-17T13:56:34.192Z,25.45
2022-11-17T13:59:06.229Z,23.85
2022-11-17T14:01:33.227Z,29.98
2022-11-17T14:04:20.708Z,38.60
2022-11-17T14:07:02.077Z,35.80
2022-11-17T14:09:30.941Z,41.38
2022-11-17T14:12:01.753Z,41.15
2022-11-17T14:14:35.985Z,38.75
2022-11-17T14:17:19.731Z,42.15
2022-11-17T14:19:47.352Z,43.42
2022-11-17T14:22:21.402Z,44.78
2022-11-17T14:24:51.854Z,45.67
2022-11-17T14:27:27.745Z,46.03
2022-11-17T14:29:54.437Z,47.00
2022-11-17T14:32:21.405Z,50.85
2022-11-17T14:34:48.214Z,43.33
2022-11-17T14:37:15.021Z,49.72
2022-11-17T14:39:41.725Z,46.60
2022-11-17T14:42:11.022Z,46.83
2022-11-17T14:44:37.701Z,43.10
2022-11-17T14:47:04.361Z,42.47
2022-11-17T14:49:31.127Z,48.45
2022-11-17T14:51:59.297Z,45.00
2022-11-17T14:54:26.470Z,45.55
2022-11-17T14:56:53.190Z,49.95
2022-11-17T14:59:20.231Z,45.50
2022-11-17T15:01:47.067Z,45.65
2022-11-17T15:04:48.387Z,46.65
2022-11-17T15:07:02.716Z,53.38
2022-11-17T15:09:29.558Z,53.97
2022-11-17T15:11:56.302Z,46.97
2022-11-17T15:14:23.302Z,49.47
2022-11-17T15:16:50.107Z,48.30
2022-11-17T15:19:16.945Z,45.03
2022-11-17T15:21:43.754Z,51.92
2022-11-17T15:24:10.472Z,49.60
2022-11-17T15:26:37.328Z,50.05
2022-11-17T15:29:04.357Z,51.65
2022-11-17T15:31:31.230Z,53.38
2022-11-17T15:33:58.069Z,48.92
2022-11-17T15:36:24.840Z,44.08
2022-11-17T15:38:53.241Z,57.95
2022-11-17T15:41:20.255Z,79.28
2022-11-17T15:43:47.205Z,67.07
2022-11-17T15:46:18.586Z,60.67
2022-11-17T15:48:47.379Z,63.50
2022-11-17T15:51:16.641Z,52.72
2022-11-17T15:53:44.769Z,51.97
2022-11-17T15:56:15.348Z,56.03
2022-11-17T15:58:43.675Z,53.05
2022-11-17T16:01:15.381Z,48.55
2022-11-17T16:03:44.086Z,53.20
2022-11-17T16:06:12.296Z,48.50
2022-11-17T16:08:39.168Z,52.55
2022-11-17T16:11:06.869Z,52.97
2022-11-17T16:13:33.927Z,52.85
2022-11-17T16:16:00.820Z,50.97
2022-11-17T16:18:27.542Z,53.22
2022-11-17T16:20:54.768Z,52.45
2022-11-17T16:23:22.333Z,46.60
2022-11-17T16:25:49.116Z,45.10
2022-11-17T16:28:17.385Z,44.10
2022-11-17T16:30:44.545Z,47.58
2022-11-17T16:33:13.417Z,51.05
2022-11-17T16:35:40.914Z,47.33
2022-11-17T16:38:12.681Z,46.30
2022-11-17T16:40:39.913Z,46.42
2022-11-17T16:43:06.709Z,51.65
2022-11-17T16:45:46.012Z,49.22
2022-11-17T16:48:12.954Z,45.58
2022-11-17T16:50:41.472Z,47.70
2022-11-17T16:53:08.583Z,47.58
2022-11-17T16:55:36.646Z,54.22
2022-11-17T16:58:04.935Z,58.45
2022-11-17T17:00:32.044Z,50.08
2022-11-17T17:02:59.149Z,49.15
2022-11-17T17:05:26.126Z,51.50
2022-11-17T17:07:52.874Z,46.05
2022-11-17T17:10:19.549Z,44.50
2022-11-17T17:12:46.233Z,47.17
2022-11-17T17:15:13.141Z,47.47
2022-11-17T17:17:40.253Z,50.67
2022-11-17T17:20:08.104Z,49.33
2022-11-17T17:22:34.807Z,56.78
2022-11-17T17:25:03.861Z,51.03
2022-11-17T17:27:31.585Z,48.35
2022-11-17T17:29:58.485Z,46.38
2022-11-17T17:32:25.255Z,46.63
2022-11-17T17:34:52.115Z,49.97
2022-11-17T17:37:18.811Z,48.83
2022-11-17T17:39:45.738Z,49.33
2022-11-17T17:42:13.549Z,47.90
2022-11-17T17:44:40.285Z,46.63
2022-11-17T17:47:07.023Z,53.00
2022-11-17T17:49:33.780Z,50.65
2022-11-17T17:52:00.520Z,49.40
2022-11-17T17:54:27.500Z,50.63
2022-11-17T17:56:54.241Z,50.70
2022-11-17T17:59:20.888Z,50.63
2022-11-17T18:01:48.117Z,51.17
2022-11-17T18:04:16.553Z,49.30
2022-11-17T18:06:47.310Z,54.88
2022-11-17T18:09:15.675Z,56.20
2022-11-17T18:11:45.920Z,45.97
2022-11-17T18:14:13.424Z,46.40
2022-11-17T18:16:40.810Z,48.03
2022-11-17T18:19:09.178Z,50.22
2022-11-17T18:21:36.216Z,50.50
2022-11-17T18:24:04.183Z,51.60
2022-11-17T18:26:36.032Z,50.80
2022-11-17T18:29:05.023Z,48.75
2022-11-17T18:31:33.950Z,48.72
2022-11-17T18:34:04.312Z,51.15
2022-11-17T18:36:31.332Z,49.47
2022-11-17T18:38:58.724Z,50.42
2022-11-17T18:41:26.826Z,50.53
2022-11-17T18:43:54.890Z,52.13
2022-11-17T18:46:23.351Z,51.15
2022-11-17T18:48:51.816Z,47.53
2022-11-17T18:51:21.687Z,50.10
2022-11-17T18:53:49.910Z,53.80
2022-11-17T18:56:19.167Z,49.13
2022-11-17T18:58:46.308Z,50.83
2022-11-17T19:01:18.964Z,54.60
2022-11-17T19:03:48.145Z,50.33
2022-11-17T19:06:16.486Z,52.08
2022-11-17T19:08:43.620Z,49.50
2022-11-17T19:11:11.768Z,51.80
2022-11-17T19:13:40.308Z,50.30
2022-11-17T19:16:18.072Z,52.42
2022-11-17T19:18:46.791Z,49.03
2022-11-17T19:21:18.804Z,52.75
2022-11-17T19:23:51.492Z,51.83
2022-11-17T19:26:24.857Z,48.85
2022-11-17T19:28:59.280Z,51.88
2022-11-17T19:31:26.867Z,49.90
2022-11-17T19:33:54.354Z,52.00
2022-11-17T19:36:23.940Z,49.63
2022-11-17T19:38:52.911Z,53.90
2022-11-17T19:41:21.863Z,49.45
2022-11-17T19:43:51.719Z,47.42
2022-11-17T19:46:18.847Z,51.88
2022-11-17T19:48:46.332Z,52.03
2022-11-17T19:51:20.420Z,48.25
2022-11-17T19:53:48.751Z,48.53
2022-11-17T19:56:16.250Z,51.13
2022-11-17T19:58:43.807Z,50.28
2022-11-17T20:01:16.892Z,52.67
2022-11-17T20:03:44.020Z,53.92
2022-11-17T20:06:13.016Z,52.90
2022-11-17T20:08:40.008Z,49.15
2022-11-17T20:11:11.271Z,48.63
2022-11-17T20:13:39.040Z,53.67
2022-11-17T20:16:12.005Z,58.38
2022-11-17T20:18:40.085Z,56.17
2022-11-17T20:21:07.574Z,53.72
2022-11-17T20:23:35.233Z,54.95
2022-11-17T20:26:07.875Z,54.38
2022-11-17T20:28:37.750Z,54.67
2022-11-17T20:31:22.176Z,57.65
2022-11-17T20:33:49.117Z,59.67
2022-11-17T20:36:19.034Z,61.25
2022-11-17T20:38:50.573Z,54.65
2022-11-17T20:41:17.352Z,58.67
2022-11-17T20:43:48.034Z,59.33
2022-11-17T20:46:14.848Z,57.17
2022-11-17T20:48:41.728Z,56.28
2022-11-17T20:51:12.220Z,62.10
2022-11-17T20:53:39.638Z,56.20
2022-11-17T20:56:08.282Z,57.20
2022-11-17T20:58:35.768Z,54.92
2022-11-17T21:01:14.902Z,57.55
2022-11-17T21:03:42.443Z,56.38
2022-11-17T21:06:10.187Z,55.30
2022-11-17T21:08:38.643Z,54.47
2022-11-17T21:11:11.483Z,55.42
2022-11-17T21:13:38.777Z,57.85
2022-11-17T21:16:11.931Z,53.08
2022-11-17T21:18:44.436Z,57.40
2022-11-17T21:21:11.504Z,57.78
2022-11-17T21:23:39.827Z,50.40
2022-11-17T21:26:07.317Z,49.15
2022-11-17T21:28:35.072Z,51.70
2022-11-17T21:31:10.063Z,52.33
2022-11-17T21:33:37.729Z,54.33
2022-11-17T21:36:06.604Z,58.05
2022-11-17T21:38:33.737Z,50.13
2022-11-17T21:41:15.046Z,46.72
2022-11-17T21:43:43.390Z,49.60
2022-11-17T21:46:12.984Z,47.38
2022-11-17T21:48:39.779Z,47.80
2022-11-17T21:51:13.387Z,51.85
2022-11-17T21:53:40.073Z,55.72
2022-11-17T21:56:07.626Z,48.95
2022-11-17T21:58:34.584Z,51.47
2022-11-17T22:01:30.876Z,46.58
2022-11-17T22:03:57.768Z,48.72
2022-11-17T22:06:26.101Z,49.00
2022-11-17T22:08:54.706Z,44.30
2022-11-17T22:11:37.317Z,49.53
2022-11-17T22:14:13.245Z,49.10
2022-11-17T22:16:48.415Z,45.95
2022-11-17T22:19:16.881Z,44.00
2022-11-17T22:21:45.197Z,48.25
2022-11-17T22:24:12.895Z,44.42
2022-11-17T22:26:41.672Z,49.15
2022-11-17T22:29:12.386Z,47.63
2022-11-17T22:31:39.093Z,46.22
2022-11-17T22:34:05.883Z,47.65
2022-11-17T22:36:32.743Z,48.42
2022-11-17T22:38:59.519Z,47.35
2022-11-17T22:41:26.372Z,49.55
2022-11-17T22:43:55.215Z,50.20
2022-11-17T22:46:24.337Z,46.47
2022-11-17T22:48:52.813Z,42.65
2022-11-17T22:51:38.923Z,46.38
2022-11-17T22:56:33.471Z,45.10
2022-11-17T22:59:00.317Z,45.10
2022-11-17T23:01:27.451Z,42.10
2022-11-17T23:03:54.298Z,44.33
2022-11-17T23:06:22.617Z,41.25
2022-11-17T23:08:50.672Z,43.95
2022-11-17T23:14:05.780Z,48.85
2022-11-17T23:16:33.162Z,49.03
2022-11-17T23:18:59.912Z,45.22
2022-11-17T23:21:26.750Z,43.22
2022-11-17T23:23:53.544Z,42.40
2022-11-17T23:26:20.575Z,49.03
2022-11-17T23:28:47.327Z,39.70
2022-11-17T23:31:16.185Z,45.20
2022-11-17T23:33:47.806Z,44.38
2022-11-17T23:36:22.625Z,42.67
2022-11-17T23:38:50.622Z,44.15
2022-11-17T23:41:19.839Z,42.25
2022-11-17T23:43:49.796Z,44.30
2022-11-17T23:46:18.961Z,45.40
2022-11-17T23:48:45.748Z,44.65
2022-11-17T23:51:15.140Z,45.72
2022-11-17T23:53:42.052Z,44.70
2022-11-17T23:56:10.157Z,43.97
2022-11-17T23:58:37.627Z,39.35
